createdAt,value
2019-05-21T00:00:18.849Z,101085.70
2019-05-21T00:02:47.024Z,101087.47
2019-05-21T00:05:15.223Z,101085.26
2019-05-21T00:07:43.465Z,101092.72
2019-05-21T00:10:11.801Z,101087.45
2019-05-21T00:12:39.990Z,101094.48
2019-05-21T00:15:08.277Z,101097.13
2019-05-21T00:17:36.484Z,101095.80
2019-05-21T00:20:04.881Z,101100.66
2019-05-21T00:22:33.185Z,101096.73
2019-05-21T00:25:01.417Z,101087.50
2019-05-21T00:27:29.760Z,101091.89
2019-05-21T00:30:33.657Z,101093.22
2019-05-21T00:33:37.285Z,101086.21
2019-05-21T00:36:41.454Z,101091.03
2019-05-21T00:39:45.584Z,101085.77
2019-05-21T00:42:18.554Z,101091.49
2019-05-21T00:44:46.821Z,101090.61
2019-05-21T00:47:15.167Z,101090.61
2019-05-21T00:49:43.370Z,101086.23
2019-05-21T00:52:11.676Z,101093.22
2019-05-21T00:54:39.964Z,101083.13
2019-05-21T00:57:08.191Z,101081.81
2019-05-21T00:59:36.437Z,101080.95
2019-05-21T01:02:04.647Z,101078.34
2019-05-21T01:04:32.885Z,101077.00
2019-05-21T01:07:04.758Z,101077.44
2019-05-21T01:09:32.952Z,101074.37
2019-05-21T01:12:04.111Z,101063.83
2019-05-21T01:14:32.295Z,101061.64
2019-05-21T01:17:00.498Z,101073.95
2019-05-21T01:19:30.990Z,101070.87
2019-05-21T01:21:59.173Z,101069.11
2019-05-21T01:24:27.351Z,101070.01
2019-05-21T01:26:55.571Z,101066.05
2019-05-21T01:29:23.789Z,101070.44
2019-05-21T01:31:51.986Z,101061.20
2019-05-21T01:34:20.212Z,101068.69
2019-05-21T01:36:48.500Z,101073.50
2019-05-21T01:39:16.695Z,101077.45
2019-05-21T01:41:45.009Z,101076.13
2019-05-21T01:44:13.222Z,101083.14
2019-05-21T01:46:41.466Z,101079.22
2019-05-21T01:49:09.663Z,101076.14
2019-05-21T01:51:37.906Z,101077.45
2019-05-21T01:54:06.100Z,101079.65
2019-05-21T01:56:34.320Z,101092.80
2019-05-21T01:59:02.662Z,101087.09
2019-05-21T02:01:30.865Z,101085.33
2019-05-21T02:03:59.094Z,101080.49
2019-05-21T02:06:27.281Z,101090.16
2019-05-21T02:08:55.498Z,101087.97
2019-05-21T02:11:23.758Z,101085.77
2019-05-21T02:13:51.979Z,101087.09
2019-05-21T02:16:20.331Z,101080.94
2019-05-21T02:18:48.566Z,101088.84
2019-05-21T02:21:16.767Z,101077.44
2019-05-21T02:23:44.967Z,101082.70
2019-05-21T02:26:13.177Z,101096.73
2019-05-21T02:28:41.442Z,101085.77
2019-05-21T02:31:09.620Z,101088.83
2019-05-21T02:33:37.858Z,101098.45
2019-05-21T02:36:06.073Z,101090.13
2019-05-21T02:38:34.253Z,101093.20
2019-05-21T02:41:03.481Z,101096.70
2019-05-21T02:43:31.691Z,101102.84
2019-05-21T02:45:59.913Z,101097.59
2019-05-21T02:48:28.139Z,101101.53
2019-05-21T02:50:56.362Z,101096.70
2019-05-21T02:53:24.590Z,101097.55
2019-05-21T02:55:52.853Z,101109.39
2019-05-21T02:58:21.088Z,101113.78
2019-05-21T03:00:49.280Z,101106.33
2019-05-21T03:03:17.505Z,101105.89
2019-05-21T03:05:45.733Z,101105.44
2019-05-21T03:08:13.942Z,101106.31
2019-05-21T03:10:42.170Z,101105.91
2019-05-21T03:13:10.450Z,101115.09
2019-05-21T03:15:38.751Z,101114.67
2019-05-21T03:18:07.092Z,101119.91
2019-05-21T03:20:35.369Z,101117.29
2019-05-21T03:23:05.390Z,101132.19
2019-05-21T03:25:33.708Z,101138.30
2019-05-21T03:28:02.847Z,101148.39
2019-05-21T03:30:31.172Z,101149.27
2019-05-21T03:33:00.007Z,101153.62
2019-05-21T03:35:28.189Z,101151.42
2019-05-21T03:37:56.389Z,101144.83
2019-05-21T03:40:24.613Z,101155.81
2019-05-21T03:42:52.932Z,101151.40
2019-05-21T03:45:21.161Z,101156.66
2019-05-21T03:47:49.379Z,101158.87
2019-05-21T03:50:17.559Z,101158.00
2019-05-21T03:52:45.891Z,101154.50
2019-05-21T03:55:14.109Z,101158.02
2019-05-21T03:57:42.327Z,101163.28
2019-05-21T04:00:11.351Z,101163.27
2019-05-21T04:02:39.689Z,101165.93
2019-05-21T04:05:08.257Z,101171.63
2019-05-21T04:07:36.491Z,101176.42
2019-05-21T04:10:07.359Z,101177.30
2019-05-21T04:12:35.569Z,101177.72
2019-05-21T04:15:04.260Z,101179.86
2019-05-21T04:17:34.797Z,101177.23
2019-05-21T04:20:05.250Z,101175.48
2019-05-21T04:22:33.475Z,101182.94
2019-05-21T04:25:03.261Z,101178.98
2019-05-21T04:27:31.495Z,101184.67
2019-05-21T04:29:59.713Z,101192.13
2019-05-21T04:32:27.960Z,101180.73
2019-05-21T04:34:56.274Z,101186.85
2019-05-21T04:37:24.520Z,101193.86
2019-05-21T04:39:52.791Z,101195.17
2019-05-21T04:42:20.988Z,101198.23
2019-05-21T04:44:49.279Z,101193.88
2019-05-21T04:47:17.541Z,101193.91
2019-05-21T04:49:45.773Z,101198.70
2019-05-21T04:52:14.004Z,101201.77
2019-05-21T04:54:42.247Z,101202.19
2019-05-21T04:57:10.521Z,101197.80
2019-05-21T04:59:38.788Z,101196.48
2019-05-21T05:02:07.044Z,101201.34
2019-05-21T05:04:35.294Z,101199.98
2019-05-21T05:07:04.001Z,101193.43
2019-05-21T05:09:32.196Z,101188.14
2019-05-21T05:12:00.434Z,101193.41
2019-05-21T05:14:28.635Z,101196.91
2019-05-21T05:16:56.838Z,101195.16
2019-05-21T05:19:25.086Z,101196.03
2019-05-21T05:21:53.437Z,101197.78
2019-05-21T05:24:21.631Z,101191.20
2019-05-21T05:26:49.881Z,101196.92
2019-05-21T05:29:18.067Z,101208.29
2019-05-21T05:31:46.247Z,101206.98
2019-05-21T05:34:14.537Z,101199.53
2019-05-21T05:36:42.743Z,101210.92
2019-05-21T05:39:10.942Z,101208.71
2019-05-21T05:41:39.283Z,101204.77
2019-05-21T05:44:07.504Z,101200.85
2019-05-21T05:46:35.726Z,101199.09
2019-05-21T05:49:03.922Z,101202.19
2019-05-21T05:51:32.160Z,101199.55
2019-05-21T05:54:00.375Z,101209.22
2019-05-21T05:56:29.368Z,101206.59
2019-05-21T05:58:57.752Z,101206.59
2019-05-21T06:01:26.094Z,101205.30
2019-05-21T06:03:54.303Z,101200.94
2019-05-21T06:06:22.513Z,101202.27
2019-05-21T06:08:50.715Z,101200.98
2019-05-21T06:11:18.918Z,101206.24
2019-05-21T06:13:47.256Z,101211.95
2019-05-21T06:16:15.478Z,101213.29
2019-05-21T06:18:43.677Z,101211.12
2019-05-21T06:21:11.975Z,101216.36
2019-05-21T06:23:40.234Z,101211.55
2019-05-21T06:26:08.403Z,101217.69
2019-05-21T06:28:36.610Z,101218.12
2019-05-21T06:31:04.867Z,101223.41
2019-05-21T06:33:33.074Z,101224.27
2019-05-21T06:36:03.977Z,101226.47
2019-05-21T06:38:32.093Z,101229.09
2019-05-21T06:41:00.258Z,101231.30
2019-05-21T06:43:28.401Z,101233.94
2019-05-21T06:45:56.608Z,101227.36
2019-05-21T06:48:24.768Z,101236.14
2019-05-21T06:50:52.961Z,101239.66
2019-05-21T06:53:21.040Z,101240.11
2019-05-21T06:55:49.228Z,101242.34
2019-05-21T06:58:17.383Z,101238.41
2019-05-21T07:00:45.501Z,101243.25
2019-05-21T07:03:13.662Z,101246.33
2019-05-21T07:05:57.745Z,101252.47
2019-05-21T07:08:11.612Z,101251.59
2019-05-21T07:10:39.789Z,101259.52
2019-05-21T07:13:07.987Z,101256.02
2019-05-21T07:15:36.193Z,101256.87
2019-05-21T07:18:04.316Z,101259.95
2019-05-21T07:20:32.504Z,101258.66
2019-05-21T07:23:00.870Z,101263.94
2019-05-21T07:25:29.033Z,101270.08
2019-05-21T07:27:57.206Z,101272.70
2019-05-21T07:30:25.345Z,101277.11
2019-05-21T07:32:53.521Z,101267.00
2019-05-21T07:35:21.589Z,101276.23
2019-05-21T07:37:49.737Z,101273.59
2019-05-21T07:40:18.056Z,101272.27
2019-05-21T07:42:46.171Z,101275.80
2019-05-21T07:45:14.591Z,101280.65
2019-05-21T07:47:42.710Z,101285.47
2019-05-21T07:50:11.813Z,101285.45
2019-05-21T07:52:39.963Z,101280.17
2019-05-21T07:55:08.169Z,101285.46
2019-05-21T07:57:36.450Z,101288.52
2019-05-21T08:00:06.881Z,101296.00
2019-05-21T08:02:35.039Z,101296.88
2019-05-21T08:05:03.724Z,101301.70
2019-05-21T08:07:31.925Z,101301.69
2019-05-21T08:10:00.056Z,101305.65
2019-05-21T08:12:39.095Z,101305.19
2019-05-21T08:14:58.142Z,101308.27
2019-05-21T08:17:26.420Z,101307.38
2019-05-21T08:19:54.583Z,101308.67
2019-05-21T08:22:22.709Z,101310.88
2019-05-21T08:24:50.857Z,101311.30
2019-05-21T08:27:19.009Z,101320.55
2019-05-21T08:29:47.196Z,101318.34
2019-05-21T08:32:15.319Z,101315.70
2019-05-21T08:34:44.713Z,101318.75
2019-05-21T08:37:12.810Z,101321.39
2019-05-21T08:39:40.957Z,101321.37
2019-05-21T08:42:09.103Z,101330.17
2019-05-21T08:44:37.228Z,101334.98
2019-05-21T08:47:05.448Z,101336.73
2019-05-21T08:49:33.541Z,101327.46
2019-05-21T08:52:05.459Z,101328.37
2019-05-21T08:54:33.590Z,101333.19
2019-05-21T08:57:01.711Z,101335.37
2019-05-21T08:59:29.804Z,101337.58
2019-05-21T09:01:59.071Z,101341.95
2019-05-21T09:04:45.431Z,101345.94
2019-05-21T09:06:57.425Z,101349.01
2019-05-21T09:09:25.546Z,101349.04
2019-05-21T09:11:53.681Z,101353.44
2019-05-21T09:14:21.980Z,101357.41
2019-05-21T09:16:50.151Z,101357.38
2019-05-21T09:19:18.322Z,101359.13
2019-05-21T09:21:46.460Z,101360.90
2019-05-21T09:24:14.642Z,101361.34
2019-05-21T09:26:43.503Z,101359.12
2019-05-21T09:29:11.641Z,101356.46
2019-05-21T09:31:39.752Z,101359.09
2019-05-21T09:34:07.878Z,101353.35
2019-05-21T09:36:36.119Z,101347.62
2019-05-21T09:39:05.717Z,101352.41
2019-05-21T09:41:33.851Z,101348.39
2019-05-21T09:44:02.008Z,101346.16
2019-05-21T09:46:30.147Z,101352.30
2019-05-21T09:48:58.243Z,101349.19
2019-05-21T09:51:26.500Z,101353.17
2019-05-21T09:53:54.781Z,101350.95
2019-05-21T09:56:23.013Z,101352.69
2019-05-21T09:58:51.268Z,101351.36
2019-05-21T10:01:19.438Z,101362.80
2019-05-21T10:03:47.571Z,101356.65
2019-05-21T10:06:15.662Z,101360.61
2019-05-21T10:08:43.818Z,101360.18
2019-05-21T10:11:11.956Z,101364.21
2019-05-21T10:13:40.088Z,101362.91
2019-05-21T10:16:08.211Z,101362.52
2019-05-21T10:18:36.323Z,101365.61
2019-05-21T10:21:05.615Z,101364.73
2019-05-21T10:23:33.795Z,101368.27
2019-05-21T10:26:03.707Z,101371.34
2019-05-21T10:28:31.847Z,101370.06
2019-05-21T10:31:00.743Z,101371.41
2019-05-21T10:33:28.901Z,101371.41
2019-05-21T10:35:57.045Z,101370.97
2019-05-21T10:38:25.683Z,101374.45
2019-05-21T10:40:53.860Z,101372.69
2019-05-21T10:43:21.967Z,101376.23
2019-05-21T10:45:50.244Z,101377.95
2019-05-21T10:48:18.378Z,101377.95
2019-05-21T10:50:46.509Z,101372.20
2019-05-21T10:53:14.695Z,101375.25
2019-05-21T10:55:42.854Z,101378.77
2019-05-21T10:58:10.975Z,101381.91
2019-05-21T11:00:39.370Z,101385.44
2019-05-21T11:03:07.604Z,101374.00
2019-05-21T11:05:35.759Z,101374.41
2019-05-21T11:08:23.045Z,101376.64
2019-05-21T11:10:34.792Z,101380.12
2019-05-21T11:13:02.948Z,101387.16
2019-05-21T11:15:31.126Z,101380.98
2019-05-21T11:18:10.528Z,101386.25
2019-05-21T11:20:29.141Z,101385.81
2019-05-21T11:22:58.383Z,101385.81
2019-05-21T11:25:26.783Z,101391.53
2019-05-21T11:27:54.931Z,101397.66
2019-05-21T11:30:23.037Z,101393.22
2019-05-21T11:32:51.220Z,101393.22
2019-05-21T11:35:20.498Z,101398.45
2019-05-21T11:37:48.619Z,101399.27
2019-05-21T11:40:17.652Z,101401.00
2019-05-21T11:42:45.779Z,101404.89
2019-05-21T11:45:30.709Z,101404.04
2019-05-21T11:47:43.996Z,101411.92
2019-05-21T11:50:12.512Z,101418.95
2019-05-21T11:52:40.673Z,101407.47
2019-05-21T11:55:08.906Z,101413.16
2019-05-21T11:57:37.033Z,101416.16
2019-05-21T12:00:05.802Z,101420.98
2019-05-21T12:02:33.958Z,101413.02
2019-05-21T12:05:02.069Z,101414.77
2019-05-21T12:07:30.227Z,101412.13
2019-05-21T12:09:59.092Z,101408.53
2019-05-21T12:12:27.336Z,101417.31
2019-05-21T12:14:55.538Z,101412.90
2019-05-21T12:17:23.693Z,101420.36
2019-05-21T12:19:51.967Z,101424.38
2019-05-21T12:22:20.139Z,101419.09
2019-05-21T12:24:48.298Z,101429.70
2019-05-21T12:27:16.510Z,101428.40
2019-05-21T12:29:44.628Z,101429.34
2019-05-21T12:32:12.774Z,101431.58
2019-05-21T12:34:40.933Z,101423.65
2019-05-21T12:37:09.050Z,101420.12
2019-05-21T12:39:37.200Z,101425.81
2019-05-21T12:42:05.455Z,101428.47
2019-05-21T12:44:33.590Z,101428.91
2019-05-21T12:47:01.730Z,101431.52
2019-05-21T12:49:29.864Z,101421.80
2019-05-21T12:51:58.011Z,101426.22
2019-05-21T12:54:26.158Z,101427.11
2019-05-21T12:56:54.345Z,101427.09
2019-05-21T12:59:22.495Z,101431.44
2019-05-21T13:01:50.619Z,101435.37
2019-05-21T13:04:18.770Z,101431.36
2019-05-21T13:06:46.929Z,101437.02
2019-05-21T13:09:31.337Z,101439.61
2019-05-21T13:11:44.977Z,101445.36
2019-05-21T13:14:16.315Z,101438.36
2019-05-21T13:16:43.013Z,101437.46
2019-05-21T13:19:11.465Z,101441.86
2019-05-21T13:21:39.674Z,101448.84
2019-05-21T13:24:07.844Z,101446.11
2019-05-21T13:26:36.699Z,101453.95
2019-05-21T13:29:04.935Z,101459.16
2019-05-21T13:31:33.783Z,101459.97
2019-05-21T13:34:01.920Z,101459.48
2019-05-21T13:36:30.062Z,101454.17
2019-05-21T13:38:58.191Z,101448.81
2019-05-21T13:41:26.340Z,101450.52
2019-05-21T13:43:54.483Z,101459.25
2019-05-21T13:46:22.704Z,101453.95
2019-05-21T13:48:50.866Z,101468.11
2019-05-21T13:51:18.998Z,101463.69
2019-05-21T13:53:47.136Z,101470.38
2019-05-21T13:56:15.384Z,101475.25
2019-05-21T13:58:43.490Z,101469.90
2019-05-21T14:01:15.719Z,101473.41
2019-05-21T14:03:42.186Z,101468.11
2019-05-21T14:06:10.364Z,101465.85
2019-05-21T14:08:38.502Z,101475.49
2019-05-21T14:11:06.645Z,101471.97
2019-05-21T14:13:34.870Z,101476.80
2019-05-21T14:16:02.991Z,101477.65
2019-05-21T14:18:31.122Z,101477.64
2019-05-21T14:20:59.274Z,101474.55
2019-05-21T14:23:27.407Z,101487.31
2019-05-21T14:25:55.625Z,101479.34
2019-05-21T14:28:23.830Z,101483.73
2019-05-21T14:30:52.258Z,101478.41
2019-05-21T14:33:20.404Z,101479.73
2019-05-21T14:35:51.313Z,101481.91
2019-05-21T14:38:19.520Z,101479.67
2019-05-21T14:40:47.664Z,101482.30
2019-05-21T14:43:16.419Z,101483.11
2019-05-21T14:45:44.569Z,101477.36
2019-05-21T14:48:12.783Z,101481.79
2019-05-21T14:50:40.921Z,101476.48
2019-05-21T14:53:09.133Z,101477.36
2019-05-21T14:55:37.246Z,101477.87
2019-05-21T14:58:06.512Z,101482.35
2019-05-21T15:00:34.726Z,101481.63
2019-05-21T15:03:03.631Z,101488.75
2019-05-21T15:05:32.323Z,101489.24
2019-05-21T15:08:00.456Z,101492.39
2019-05-21T15:10:28.641Z,101497.72
2019-05-21T15:12:56.856Z,101489.82
2019-05-21T15:15:25.013Z,101485.48
2019-05-21T15:17:53.183Z,101485.49
2019-05-21T15:20:21.532Z,101488.20
2019-05-21T15:22:49.640Z,101493.58
2019-05-21T15:25:17.812Z,101497.55
2019-05-21T15:27:45.945Z,101495.35
2019-05-21T15:30:14.071Z,101499.45
2019-05-21T15:32:42.222Z,101512.28
2019-05-21T15:35:10.378Z,101507.06
2019-05-21T15:37:38.866Z,101505.83
2019-05-21T15:40:07.965Z,101506.31
2019-05-21T15:42:36.095Z,101501.50
2019-05-21T15:45:06.616Z,101504.59
2019-05-21T15:47:33.835Z,101512.50
2019-05-21T15:50:01.991Z,101510.33
2019-05-21T15:52:30.254Z,101514.27
2019-05-21T15:54:58.435Z,101507.20
2019-05-21T15:57:26.590Z,101512.06
2019-05-21T15:59:54.813Z,101514.66
2019-05-21T16:02:23.004Z,101517.31
2019-05-21T16:04:51.172Z,101525.26
2019-05-21T16:07:19.294Z,101520.45
2019-05-21T16:09:47.432Z,101514.25
2019-05-21T16:12:15.633Z,101525.75
2019-05-21T16:14:43.766Z,101523.58
2019-05-21T16:17:12.789Z,101524.56
2019-05-21T16:19:40.972Z,101531.16
2019-05-21T16:22:09.126Z,101533.84
2019-05-21T16:24:37.673Z,101535.67
2019-05-21T16:27:05.805Z,101532.16
2019-05-21T16:29:33.922Z,101540.09
2019-05-21T16:32:03.467Z,101535.27
2019-05-21T16:34:32.178Z,101549.41
2019-05-21T16:37:00.414Z,101541.94
2019-05-21T16:39:29.857Z,101538.45
2019-05-21T16:41:58.019Z,101551.28
2019-05-21T16:44:26.249Z,101546.45
2019-05-21T16:46:57.483Z,101549.58
2019-05-21T16:49:25.735Z,101557.52
2019-05-21T16:51:53.945Z,101559.30
2019-05-21T16:54:22.235Z,101557.53
2019-05-21T16:56:50.396Z,101566.77
2019-05-21T16:59:18.552Z,101561.49
2019-05-21T17:01:46.690Z,101561.91
2019-05-21T17:04:14.809Z,101561.94
2019-05-21T17:06:42.975Z,101563.27
2019-05-21T17:09:12.970Z,101572.48
2019-05-21T17:11:41.085Z,101562.80
2019-05-21T17:14:09.223Z,101564.53
2019-05-21T17:16:37.399Z,101568.07
2019-05-21T17:19:05.622Z,101572.90
2019-05-21T17:21:33.750Z,101571.56
2019-05-21T17:24:03.409Z,101565.42
2019-05-21T17:26:31.553Z,101570.27
2019-05-21T17:28:59.703Z,101577.73
2019-05-21T17:31:27.865Z,101573.34
2019-05-21T17:33:56.032Z,101581.21
2019-05-21T17:36:24.188Z,101590.91
2019-05-21T17:38:52.343Z,101586.91
2019-05-21T17:41:20.513Z,101590.86
2019-05-21T17:43:48.632Z,101583.81
2019-05-21T17:46:16.969Z,101592.13
2019-05-21T17:48:45.094Z,101595.66
2019-05-21T17:51:13.400Z,101597.39
2019-05-21T17:53:41.579Z,101604.41
2019-05-21T17:56:09.687Z,101603.06
2019-05-21T17:58:37.881Z,101600.86
2019-05-21T18:01:06.005Z,101607.02
2019-05-21T18:03:34.143Z,101608.72
2019-05-21T18:06:05.234Z,101609.14
2019-05-21T18:08:33.382Z,101604.69
2019-05-21T18:11:01.765Z,101606.42
2019-05-21T18:13:29.982Z,101614.77
2019-05-21T18:15:58.230Z,101612.11
2019-05-21T18:18:26.498Z,101619.11
2019-05-21T18:20:54.676Z,101619.11
2019-05-21T18:23:22.825Z,101614.72
2019-05-21T18:25:50.979Z,101623.44
2019-05-21T18:28:19.141Z,101616.86
2019-05-21T18:30:47.274Z,101625.14
2019-05-21T18:33:15.510Z,101631.28
2019-05-21T18:35:45.444Z,101642.63
2019-05-21T18:38:13.707Z,101641.75
2019-05-21T18:40:41.979Z,101630.78
2019-05-21T18:43:10.108Z,101628.99
2019-05-21T18:45:38.434Z,101632.06
2019-05-21T18:48:06.572Z,101639.09
2019-05-21T18:50:36.563Z,101638.61
2019-05-21T18:53:04.638Z,101624.13
2019-05-21T18:55:32.912Z,101631.56
2019-05-21T18:58:02.294Z,101643.84
2019-05-21T19:00:30.764Z,101642.49
2019-05-21T19:02:58.913Z,101642.92
2019-05-21T19:05:27.082Z,101651.23
2019-05-21T19:07:55.357Z,101649.03
2019-05-21T19:10:23.550Z,101656.89
2019-05-21T19:12:51.878Z,101653.34
2019-05-21T19:15:20.044Z,101657.30
2019-05-21T19:17:48.228Z,101658.61
2019-05-21T19:20:17.099Z,101662.55
2019-05-21T19:22:45.233Z,101665.62
2019-05-21T19:25:13.505Z,101665.19
2019-05-21T19:27:41.613Z,101669.14
2019-05-21T19:30:10.244Z,101676.63
2019-05-21T19:32:38.428Z,101681.46
2019-05-21T19:35:08.294Z,101680.14
2019-05-21T19:37:36.438Z,101690.63
2019-05-21T19:40:07.111Z,101691.06
2019-05-21T19:42:35.222Z,101694.58
2019-05-21T19:45:04.223Z,101700.27
2019-05-21T19:47:32.390Z,101700.23
2019-05-21T19:50:00.528Z,101704.18
2019-05-21T19:52:28.645Z,101702.43
2019-05-21T19:54:56.946Z,101704.63
2019-05-21T19:57:25.161Z,101706.34
2019-05-21T19:59:53.399Z,101711.59
2019-05-21T20:02:21.563Z,101718.61
2019-05-21T20:04:49.818Z,101726.06
2019-05-21T20:07:17.972Z,101728.22
2019-05-21T20:09:46.121Z,101726.89
2019-05-21T20:12:14.367Z,101724.22
2019-05-21T20:14:42.529Z,101731.67
2019-05-21T20:17:11.133Z,101729.04
2019-05-21T20:19:40.056Z,101734.73
2019-05-21T20:22:08.501Z,101735.58
2019-05-21T20:24:36.632Z,101737.81
2019-05-21T20:27:05.510Z,101748.33
2019-05-21T20:29:34.258Z,101750.05
2019-05-21T20:32:03.942Z,101748.33
2019-05-21T20:34:32.105Z,101747.90
2019-05-21T20:37:19.055Z,101747.02
2019-05-21T20:39:39.966Z,101752.73
2019-05-21T20:42:12.103Z,101750.09
2019-05-21T20:44:40.243Z,101748.33
2019-05-21T20:47:08.788Z,101744.34
2019-05-21T20:49:40.351Z,101745.22
2019-05-21T20:52:18.484Z,101738.20
2019-05-21T20:54:47.011Z,101743.46
2019-05-21T20:57:15.251Z,101746.97
2019-05-21T20:59:43.520Z,101746.05
2019-05-21T21:02:13.503Z,101745.61
2019-05-21T21:04:43.064Z,101746.97
2019-05-21T21:07:11.227Z,101737.77
2019-05-21T21:09:41.394Z,101751.36
2019-05-21T21:12:10.156Z,101743.86
2019-05-21T21:14:39.180Z,101736.80
2019-05-21T21:17:10.200Z,101751.20
2019-05-21T21:19:38.809Z,101747.70
2019-05-21T21:22:07.007Z,101752.08
2019-05-21T21:24:35.327Z,101747.25
2019-05-21T21:27:04.526Z,101749.01
2019-05-21T21:29:32.663Z,101749.45
2019-05-21T21:32:00.895Z,101746.42
2019-05-21T21:34:29.022Z,101737.66
2019-05-21T21:36:57.224Z,101741.17
2019-05-21T21:39:25.653Z,101745.99
2019-05-21T21:41:53.926Z,101745.55
2019-05-21T21:44:33.660Z,101743.70
2019-05-21T21:46:52.278Z,101750.71
2019-05-21T21:49:20.439Z,101752.46
2019-05-21T21:51:48.703Z,101752.02
2019-05-21T21:54:17.012Z,101748.08
2019-05-21T21:56:45.175Z,101758.16
2019-05-21T21:59:13.321Z,101756.36
2019-05-21T22:01:51.535Z,101755.05
2019-05-21T22:04:23.037Z,101761.12
2019-05-21T22:06:51.295Z,101761.12
2019-05-21T22:09:19.643Z,101764.19
2019-05-21T22:11:47.775Z,101763.70
2019-05-21T22:14:15.971Z,101764.57
2019-05-21T22:16:45.026Z,101764.12
2019-05-21T22:19:13.380Z,101761.48
2019-05-21T22:21:41.518Z,101766.70
2019-05-21T22:24:09.625Z,101766.21
2019-05-21T22:26:37.757Z,101767.87
2019-05-21T22:29:05.930Z,101767.87
2019-05-21T22:31:34.081Z,101763.03
2019-05-21T22:34:03.692Z,101769.13
2019-05-21T22:36:31.811Z,101767.36
2019-05-21T22:38:59.925Z,101760.80
2019-05-21T22:41:28.069Z,101763.92
2019-05-21T22:43:56.343Z,101759.97
2019-05-21T22:46:24.677Z,101762.61
2019-05-21T22:48:53.041Z,101769.17
2019-05-21T22:51:21.164Z,101769.13
2019-05-21T22:53:49.303Z,101772.17
2019-05-21T22:56:17.429Z,101773.49
2019-05-21T22:58:45.558Z,101766.92
2019-05-21T23:01:14.172Z,101773.49
2019-05-21T23:03:42.335Z,101774.36
2019-05-21T23:06:10.629Z,101778.27
2019-05-21T23:08:38.746Z,101776.50
2019-05-21T23:11:07.008Z,101770.36
2019-05-21T23:13:35.177Z,101773.81
2019-05-21T23:16:03.584Z,101765.05
2019-05-21T23:18:31.759Z,101766.79
2019-05-21T23:20:59.870Z,101768.98
2019-05-21T23:23:28.145Z,101773.36
2019-05-21T23:25:57.504Z,101768.05
2019-05-21T23:28:25.789Z,101772.44
2019-05-21T23:30:54.026Z,101768.06
2019-05-21T23:33:22.235Z,101780.81
2019-05-21T23:35:50.446Z,101768.50
2019-05-21T23:38:19.193Z,101765.87
2019-05-21T23:40:48.637Z,101772.00
2019-05-21T23:43:17.246Z,101769.86
2019-05-21T23:45:45.580Z,101776.45
2019-05-21T23:48:14.606Z,101779.95
2019-05-21T23:50:43.434Z,101781.27
2019-05-21T23:53:11.552Z,101774.30
2019-05-21T23:55:39.678Z,101774.74
2019-05-21T23:58:07.806Z,101774.75
